Time;durP1;ratioP1;P1;durP2;ratioP2;P2;SDS_P1;SDS_P2;PMS_P1;PMS_P2;Temp;Humidity;BMP_temperature;BMP_pressure;BME280_temperature;BME280_humidity;BME280_pressure;Samples;Min_cycle;Max_cycle;Signal;HPM_P1;HPM_P2
2022/06/19 00:00:11;;;;;;;5.67;4.33;;;;;;;-141.29;100.00;58932.97;5094089;28;20199;-73
2022/06/19 00:02:43;;;;;;;5.13;4.63;;;;;;;-141.29;100.00;58932.97;5093866;28;20218;-74
2022/06/19 00:05:12;;;;;;;6.07;4.10;;;;;;;-141.29;100.00;58932.97;5093926;28;20203;-74
2022/06/19 00:07:40;;;;;;;7.97;4.70;;;;;;;-141.29;100.00;58932.97;5094180;28;20207;-74
2022/06/19 00:10:12;;;;;;;4.73;4.30;;;;;;;-141.29;100.00;58932.97;5094017;28;20223;-73
2022/06/19 00:12:39;;;;;;;7.33;4.37;;;;;;;-141.29;100.00;58932.97;5093950;28;20211;-74
2022/06/19 00:15:07;;;;;;;5.93;4.10;;;;;;;-141.29;100.00;58932.97;5093698;28;20207;-74
2022/06/19 00:17:35;;;;;;;8.83;5.20;;;;;;;-141.29;100.00;58932.97;5093994;28;20203;-75
2022/06/19 00:20:02;;;;;;;5.60;4.93;;;;;;;-141.29;100.00;58932.97;5093827;28;20206;-75
2022/06/19 00:22:31;;;;;;;6.63;5.17;;;;;;;-141.29;100.00;58932.97;5093509;28;20191;-74
2022/06/19 00:24:58;;;;;;;6.50;4.73;;;;;;;-141.29;100.00;58932.97;5093608;28;20211;-73
2022/06/19 00:27:25;;;;;;;6.10;4.93;;;;;;;-141.29;100.00;58932.97;5093355;28;20701;-74
2022/06/19 00:29:54;;;;;;;5.50;4.70;;;;;;;-141.29;100.00;58932.97;5093231;28;20223;-74
2022/06/19 00:32:21;;;;;;;14.67;5.23;;;;;;;-141.29;100.00;58932.97;5092456;28;20213;-75
2022/06/19 00:34:48;;;;;;;6.03;4.80;;;;;;;-141.29;100.00;58932.97;5093049;28;20203;-75
2022/06/19 00:37:15;;;;;;;6.13;4.87;;;;;;;-141.29;100.00;58932.97;5093802;28;20200;-74
2022/06/19 00:39:43;;;;;;;7.47;4.70;;;;;;;-141.29;100.00;58932.97;5093315;28;20232;-73
2022/06/19 00:42:12;;;;;;;7.27;5.20;;;;;;;-141.29;100.00;58932.97;5093218;28;20207;-75
2022/06/19 00:44:42;;;;;;;6.73;5.73;;;;;;;-141.29;100.00;58932.97;5093117;28;20199;-74
2022/06/19 00:47:17;;;;;;;7.33;5.10;;;;;;;-141.29;100.00;58932.97;5093242;28;20231;-76
2022/06/19 00:49:50;;;;;;;5.77;5.03;;;;;;;-141.29;100.00;58932.97;5093199;28;20223;-74
2022/06/19 00:52:21;;;;;;;6.47;5.70;;;;;;;-141.29;100.00;58932.97;5093426;28;20211;-75
2022/06/19 00:54:55;;;;;;;5.90;5.30;;;;;;;-141.29;100.00;58932.97;5093181;28;20212;-73
2022/06/19 00:57:22;;;;;;;7.27;5.60;;;;;;;-141.29;100.00;58932.97;5080384;28;20199;-74
2022/06/19 00:59:55;;;;;;;5.97;5.37;;;;;;;-141.29;100.00;58932.97;5101336;28;20696;-73
2022/06/19 01:02:23;;;;;;;9.57;5.60;;;;;;;-141.29;100.00;58932.97;5093129;28;20199;-75
2022/06/19 01:04:53;;;;;;;9.37;5.20;;;;;;;-141.29;100.00;58932.97;5092901;28;20206;-76
2022/06/19 01:07:21;;;;;;;8.87;5.27;;;;;;;-141.29;100.00;58932.97;5092678;28;20203;-75
2022/06/19 01:09:50;;;;;;;11.83;4.80;;;;;;;-141.29;100.00;58932.97;5092951;28;20239;-73
2022/06/19 01:12:18;;;;;;;5.73;4.63;;;;;;;-141.29;100.00;58932.97;5092658;28;20256;-74
2022/06/19 01:14:46;;;;;;;6.77;4.50;;;;;;;-141.29;100.00;58932.97;5092309;28;20211;-73
2022/06/19 01:17:15;;;;;;;5.23;4.50;;;;;;;-141.29;100.00;58932.97;5092568;28;20200;-74
2022/06/19 01:19:43;;;;;;;5.80;4.90;;;;;;;-141.29;100.00;58932.97;5092459;28;20666;-75
2022/06/19 01:22:18;;;;;;;6.33;4.67;;;;;;;-141.29;100.00;58932.97;5092862;28;20239;-75
2022/06/19 01:25:05;;;;;;;6.00;5.00;;;;;;;-141.29;100.00;58932.97;5092527;28;20666;-74
2022/06/19 01:30:20;;;;;;;7.57;5.20;;;;;;;-141.29;100.00;58932.97;5092293;28;20238;-74
2022/06/19 01:32:50;;;;;;;5.90;4.60;;;;;;;-141.29;100.00;58932.97;5091140;28;20210;-74
2022/06/19 01:35:21;;;;;;;7.00;5.00;;;;;;;-141.29;100.00;58932.97;5092342;28;20207;-74
2022/06/19 01:37:50;;;;;;;9.67;4.80;;;;;;;-141.29;100.00;58932.97;5092195;28;20204;-73
2022/06/19 01:40:22;;;;;;;5.40;4.67;;;;;;;-141.29;100.00;58932.97;5092700;28;20245;-73
2022/06/19 01:42:49;;;;;;;5.43;4.93;;;;;;;-141.29;100.00;58932.97;5091328;28;20200;-74
2022/06/19 01:45:17;;;;;;;6.93;4.40;;;;;;;-141.29;100.00;58932.97;5092150;28;20203;-74
2022/06/19 01:47:45;;;;;;;10.77;4.93;;;;;;;-141.29;100.00;58932.97;5092025;28;20713;-74
2022/06/19 01:50:15;;;;;;;7.63;4.63;;;;;;;-141.29;100.00;58932.97;5092661;28;20223;-74
2022/06/19 01:52:43;;;;;;;5.17;4.67;;;;;;;-141.29;100.00;58932.97;5091931;28;20207;-72
2022/06/19 01:55:14;;;;;;;6.77;4.70;;;;;;;-141.29;100.00;58932.97;5091750;28;20562;-76
2022/06/19 01:57:44;;;;;;;4.50;4.10;;;;;;;-141.29;100.00;58932.97;5092147;28;20621;-73
2022/06/19 02:00:14;;;;;;;5.30;4.50;;;;;;;-141.29;100.00;58932.97;5091933;28;20207;-74
2022/06/19 02:02:45;;;;;;;6.10;4.17;;;;;;;-141.29;100.00;58932.97;5091767;28;20659;-74
2022/06/19 02:05:12;;;;;;;13.10;5.30;;;;;;;-141.29;100.00;58932.97;5091952;28;20212;-72
2022/06/19 02:07:40;;;;;;;10.03;5.20;;;;;;;-141.29;100.00;58932.97;5091569;28;20210;-77
2022/06/19 02:10:07;;;;;;;8.87;5.30;;;;;;;-141.29;100.00;58932.97;5091590;28;20231;-74
2022/06/19 02:12:35;;;;;;;24.47;6.20;;;;;;;-141.29;100.00;58932.97;5091848;28;20210;-73
2022/06/19 02:15:11;;;;;;;17.63;5.73;;;;;;;-141.29;100.00;58932.97;5091565;28;20576;-76
2022/06/19 02:17:40;;;;;;;5.73;4.23;;;;;;;-141.29;100.00;58932.97;5091774;28;20207;-73
2022/06/19 02:20:08;;;;;;;8.60;4.37;;;;;;;-141.29;100.00;58932.97;5091575;28;20204;-73
2022/06/19 02:22:35;;;;;;;5.70;4.50;;;;;;;-141.29;100.00;58932.97;5091618;28;20206;-74
2022/06/19 02:25:02;;;;;;;5.37;4.50;;;;;;;-141.29;100.00;58932.97;5091464;28;20208;-75
2022/06/19 02:27:32;;;;;;;10.10;4.80;;;;;;;-141.29;100.00;58932.97;5091928;28;20207;-74
2022/06/19 02:30:01;;;;;;;11.33;4.70;;;;;;;-141.29;100.00;58932.97;5091318;28;20227;-74
2022/06/19 02:32:35;;;;;;;7.33;4.60;;;;;;;-141.29;100.00;58932.97;5081294;28;20203;-74
2022/06/19 02:35:02;;;;;;;7.50;4.87;;;;;;;-141.29;100.00;58932.97;5088043;28;20200;-74
2022/06/19 02:37:36;;;;;;;16.53;5.43;;;;;;;-141.29;100.00;58932.97;5091841;28;20204;-74
2022/06/19 02:40:13;;;;;;;7.77;5.67;;;;;;;-141.29;100.00;58932.97;5091509;28;20238;-73
2022/06/19 02:42:43;;;;;;;7.40;4.63;;;;;;;-141.29;100.00;58932.97;5091591;28;20199;-73
2022/06/19 02:45:13;;;;;;;11.13;4.90;;;;;;;-141.29;100.00;58932.97;5091246;28;20206;-73
2022/06/19 02:47:41;;;;;;;9.30;5.40;;;;;;;-141.29;100.00;58932.97;5091622;28;20224;-74
2022/06/19 02:50:12;;;;;;;11.33;5.20;;;;;;;-141.29;100.00;58932.97;5091262;28;20231;-74
2022/06/19 02:52:40;;;;;;;7.50;5.50;;;;;;;-141.29;100.00;58932.97;5091437;28;20316;-73
2022/06/19 02:55:09;;;;;;;7.70;4.97;;;;;;;-141.29;100.00;58932.97;5094607;28;20203;-74
2022/06/19 02:57:37;;;;;;;8.23;5.10;;;;;;;-141.29;100.00;58932.97;5095167;28;20205;-74
2022/06/19 03:00:05;;;;;;;10.43;4.87;;;;;;;-141.29;100.00;58932.97;5095790;28;20203;-75
2022/06/19 03:02:34;;;;;;;8.93;6.23;;;;;;;-141.29;100.00;58932.97;5095253;28;20222;-74
2022/06/19 03:05:05;;;;;;;9.50;6.37;;;;;;;-141.29;100.00;58932.97;5095054;28;20286;-74
2022/06/19 03:07:32;;;;;;;8.00;7.20;;;;;;;-141.29;100.00;58932.97;5095345;28;20625;-73
2022/06/19 03:09:59;;;;;;;11.70;9.03;;;;;;;-141.29;100.00;58932.97;5094392;28;20224;-73
2022/06/19 03:12:26;;;;;;;14.53;11.30;;;;;;;-141.29;100.00;58932.97;5095114;28;20214;-73
2022/06/19 03:14:53;;;;;;;11.03;9.93;;;;;;;-141.29;100.00;58932.97;5095178;28;20203;-75
2022/06/19 03:17:23;;;;;;;11.03;9.03;;;;;;;-141.29;100.00;58932.97;5094877;28;20195;-76
2022/06/19 03:19:50;;;;;;;8.83;7.77;;;;;;;-141.29;100.00;58932.97;5094867;28;20204;-74
2022/06/19 03:22:19;;;;;;;7.43;6.43;;;;;;;-141.29;100.00;58932.97;5094828;28;20191;-74
2022/06/19 03:24:46;;;;;;;8.83;6.57;;;;;;;-141.29;100.00;58932.97;5094657;28;20225;-73
2022/06/19 03:27:13;;;;;;;8.33;5.73;;;;;;;-141.29;100.00;58932.97;5094919;28;20220;-75
2022/06/19 03:29:41;;;;;;;6.73;5.50;;;;;;;-141.29;100.00;58932.97;5094540;28;20227;-76
2022/06/19 03:32:10;;;;;;;6.53;4.53;;;;;;;-141.29;100.00;58932.97;5087084;28;20200;-74
2022/06/19 03:34:38;;;;;;;9.20;4.90;;;;;;;-141.29;100.00;58932.97;5087583;28;20286;-73
2022/06/19 03:37:05;;;;;;;7.77;4.57;;;;;;;-141.29;100.00;58932.97;5094344;28;20221;-73
2022/06/19 03:39:33;;;;;;;5.13;4.63;;;;;;;-141.29;100.00;58932.97;5094492;28;20227;-73
2022/06/19 03:42:01;;;;;;;5.63;4.10;;;;;;;-141.29;100.00;58932.97;5093956;28;20204;-74
2022/06/19 03:44:28;;;;;;;4.53;4.00;;;;;;;-141.29;100.00;58932.97;5103914;28;20200;-73
2022/06/19 03:46:55;;;;;;;6.90;4.10;;;;;;;-141.29;100.00;58932.97;5094411;28;20223;-74
2022/06/19 03:49:22;;;;;;;4.70;3.90;;;;;;;-141.29;100.00;58932.97;5094488;28;20206;-74
2022/06/19 03:51:49;;;;;;;4.83;4.33;;;;;;;-141.29;100.00;58932.97;5094039;28;20243;-73
2022/06/19 03:54:16;;;;;;;6.13;4.10;;;;;;;-141.29;100.00;58932.97;5094310;28;20199;-75
2022/06/19 03:56:45;;;;;;;7.03;4.93;;;;;;;-141.29;100.00;58932.97;5094336;28;20230;-74
2022/06/19 03:59:13;;;;;;;4.83;4.23;;;;;;;-141.29;100.00;58932.97;5094237;28;20196;-73
2022/06/19 04:01:41;;;;;;;6.90;4.67;;;;;;;-141.29;100.00;58932.97;5094058;28;20203;-75
2022/06/19 04:04:10;;;;;;;7.60;4.83;;;;;;;-141.29;100.00;58932.97;5093572;28;20256;-74
2022/06/19 04:06:42;;;;;;;7.37;5.37;;;;;;;-141.29;100.00;58932.97;5093752;28;20210;-73
2022/06/19 04:09:14;;;;;;;8.83;5.80;;;;;;;-141.29;100.00;58932.97;5093765;28;20200;-73
2022/06/19 04:11:41;;;;;;;8.23;5.50;;;;;;;-141.29;100.00;58932.97;5094020;28;20336;-76
2022/06/19 04:14:10;;;;;;;13.13;5.77;;;;;;;-141.29;100.00;58932.97;5093737;28;20200;-75
2022/06/19 04:16:37;;;;;;;10.23;6.40;;;;;;;-141.29;100.00;58932.97;5075704;28;20199;-73
2022/06/19 04:19:06;;;;;;;8.17;6.87;;;;;;;-141.29;100.00;58932.97;5094162;28;20564;-74
2022/06/19 04:21:37;;;;;;;9.33;7.40;;;;;;;-141.29;100.00;58932.97;5093905;28;20203;-74
2022/06/19 04:24:07;;;;;;;11.10;7.30;;;;;;;-141.29;100.00;58932.97;5093962;28;20593;-74
2022/06/19 04:26:36;;;;;;;12.40;7.57;;;;;;;-141.29;100.00;58932.97;5093935;28;20256;-74
2022/06/19 04:29:04;;;;;;;10.50;8.43;;;;;;;-141.29;100.00;58932.97;5093658;28;20200;-75
2022/06/19 04:31:33;;;;;;;12.47;8.07;;;;;;;-141.29;100.00;58932.97;5092266;28;20692;-75
2022/06/19 04:34:00;;;;;;;16.33;8.03;;;;;;;-141.29;100.00;58932.97;5093391;28;20203;-74
2022/06/19 04:36:29;;;;;;;12.47;7.87;;;;;;;-141.29;100.00;58932.97;5093785;28;20200;-73
2022/06/19 04:38:57;;;;;;;19.23;8.47;;;;;;;-141.29;100.00;58932.97;5093402;28;20235;-75
2022/06/19 04:41:28;;;;;;;11.23;7.53;;;;;;;-141.29;100.00;58932.97;5093216;28;20214;-74
2022/06/19 04:43:56;;;;;;;12.00;7.90;;;;;;;-141.29;100.00;58932.97;5092782;28;20750;-76
2022/06/19 04:46:23;;;;;;;10.03;6.73;;;;;;;-141.29;100.00;58932.97;5093327;28;20207;-76
2022/06/19 04:48:53;;;;;;;10.10;7.20;;;;;;;-141.29;100.00;58932.97;5093127;28;20662;-75
2022/06/19 04:51:20;;;;;;;7.83;7.00;;;;;;;-141.29;100.00;58932.97;5093050;28;20239;-75
2022/06/19 04:53:47;;;;;;;7.77;6.70;;;;;;;-141.29;100.00;58932.97;5093152;28;20203;-74
2022/06/19 04:56:18;;;;;;;9.83;7.23;;;;;;;-141.29;100.00;58932.97;5093039;28;20218;-74
2022/06/19 04:58:45;;;;;;;11.40;7.30;;;;;;;-141.29;100.00;58932.97;5092969;28;20199;-75
2022/06/19 05:01:22;;;;;;;9.40;7.30;;;;;;;-141.29;100.00;58932.97;5092993;28;20204;-75
2022/06/19 05:03:49;;;;;;;11.03;6.87;;;;;;;-141.29;100.00;58932.97;5092889;28;20211;-74
2022/06/19 05:06:18;;;;;;;9.70;7.43;;;;;;;-141.29;100.00;58932.97;5092992;28;20199;-73
2022/06/19 05:08:45;;;;;;;28.60;8.13;;;;;;;-141.29;100.00;58932.97;5092770;28;20210;-73
2022/06/19 05:11:12;;;;;;;14.93;8.07;;;;;;;-141.29;100.00;58932.97;5092884;28;20231;-74
2022/06/19 05:13:41;;;;;;;9.33;6.70;;;;;;;-141.29;100.00;58932.97;5092700;28;20207;-74
2022/06/19 05:16:10;;;;;;;9.43;7.80;;;;;;;-141.29;100.00;58932.97;5092091;28;20207;-74
2022/06/19 05:18:37;;;;;;;11.20;7.10;;;;;;;-141.29;100.00;58932.97;5092403;28;20230;-73
2022/06/19 05:21:05;;;;;;;14.23;7.40;;;;;;;-141.29;100.00;58932.97;5092720;28;20206;-74
2022/06/19 05:23:35;;;;;;;16.00;7.70;;;;;;;-141.29;100.00;58932.97;5092364;28;20258;-74
2022/06/19 05:26:05;;;;;;;14.83;6.90;;;;;;;-141.29;100.00;58932.97;5092590;28;20196;-73
2022/06/19 05:28:33;;;;;;;19.53;8.33;;;;;;;-141.29;100.00;58932.97;5092515;28;20195;-74
2022/06/19 05:31:01;;;;;;;12.53;7.53;;;;;;;-141.29;100.00;58932.97;5091311;28;20701;-73
2022/06/19 05:33:31;;;;;;;14.83;7.77;;;;;;;-141.29;100.00;58932.97;5092428;28;20212;-73
2022/06/19 05:35:58;;;;;;;10.57;7.97;;;;;;;-141.29;100.00;58932.97;5092237;28;20204;-75
2022/06/19 05:38:26;;;;;;;9.30;7.07;;;;;;;-141.29;100.00;58932.97;5092023;28;20195;-75
2022/06/19 05:40:56;;;;;;;10.10;7.43;;;;;;;-141.29;100.00;58932.97;5092171;28;20203;-75
2022/06/19 05:43:24;;;;;;;8.93;7.30;;;;;;;-141.29;100.00;58932.97;5092692;28;20199;-74
2022/06/19 05:45:52;;;;;;;8.53;7.30;;;;;;;-141.29;100.00;58932.97;5092255;28;20231;-75
2022/06/19 05:48:21;;;;;;;12.67;7.00;;;;;;;-141.29;100.00;58932.97;5091594;28;20710;-74
2022/06/19 05:50:58;;;;;;;8.43;6.37;;;;;;;-141.29;100.00;58932.97;5098916;28;20223;-74
2022/06/19 05:53:25;;;;;;;10.47;6.93;;;;;;;-141.29;100.00;58932.97;5091999;28;20191;-75
2022/06/19 05:55:52;;;;;;;11.90;6.73;;;;;;;-141.29;100.00;58932.97;5091992;28;20602;-74
2022/06/19 05:58:21;;;;;;;12.90;6.83;;;;;;;-141.29;100.00;58932.97;5073987;28;20261;-74
2022/06/19 06:00:48;;;;;;;10.27;6.50;;;;;;;-141.29;100.00;58932.97;5092185;28;20674;-75
2022/06/19 06:03:17;;;;;;;10.53;6.30;;;;;;;-141.29;100.00;58932.97;5092737;28;20212;-74
2022/06/19 06:05:45;;;;;;;8.23;6.80;;;;;;;-141.29;100.00;58932.97;5091961;28;20203;-73
2022/06/19 06:08:12;;;;;;;7.67;6.87;;;;;;;-141.29;100.00;58932.97;5091866;28;20248;-75
2022/06/19 06:10:40;;;;;;;10.63;7.17;;;;;;;-141.29;100.00;58932.97;5091549;28;20219;-74
2022/06/19 06:13:08;;;;;;;7.97;6.33;;;;;;;-141.29;100.00;58932.97;5091721;28;20700;-73
2022/06/19 06:15:37;;;;;;;11.27;6.63;;;;;;;-141.29;100.00;58932.97;5091521;28;20203;-73
2022/06/19 06:18:04;;;;;;;7.13;5.93;;;;;;;-141.29;100.00;58932.97;5091799;28;20203;-74
2022/06/19 06:20:35;;;;;;;10.00;6.60;;;;;;;-141.29;100.00;58932.97;5091947;28;20211;-73
2022/06/19 06:23:03;;;;;;;8.97;6.10;;;;;;;-141.29;100.00;58932.97;5091837;28;20234;-75
2022/06/19 06:25:30;;;;;;;9.23;6.60;;;;;;;-141.29;100.00;58932.97;5092607;28;20252;-73
2022/06/19 06:27:58;;;;;;;16.47;6.77;;;;;;;-141.29;100.00;58932.97;5092951;28;20639;-73
2022/06/19 06:30:26;;;;;;;10.97;5.67;;;;;;;-141.29;100.00;58932.97;5092990;28;20196;-77
2022/06/19 06:32:54;;;;;;;10.30;5.63;;;;;;;-141.29;100.00;58932.97;5092408;28;20207;-75
2022/06/19 06:35:21;;;;;;;8.10;5.40;;;;;;;-141.29;100.00;58932.97;5094188;28;20207;-73
2022/06/19 06:37:48;;;;;;;6.23;5.63;;;;;;;-141.29;100.00;58932.97;5094655;28;20191;-75
2022/06/19 06:40:15;;;;;;;7.50;5.40;;;;;;;-141.29;100.00;58932.97;5094633;28;20235;-73
2022/06/19 06:42:45;;;;;;;8.73;4.97;;;;;;;-141.29;100.00;58932.97;5090028;28;20203;-74
2022/06/19 06:45:14;;;;;;;7.70;4.77;;;;;;;-141.29;100.00;58932.97;5082670;28;20207;-73
2022/06/19 06:47:42;;;;;;;5.10;4.43;;;;;;;-141.29;100.00;58932.97;5093026;28;20231;-73
2022/06/19 06:50:11;;;;;;;13.23;5.20;;;;;;;-141.29;100.00;58932.97;5093667;28;20204;-74
2022/06/19 06:52:39;;;;;;;6.67;3.90;;;;;;;-141.29;100.00;58932.97;5093618;28;20235;-74
2022/06/19 06:55:07;;;;;;;5.20;3.97;;;;;;;-141.29;100.00;58932.97;5093755;28;20630;-74
2022/06/19 06:57:34;;;;;;;7.63;4.23;;;;;;;-141.29;100.00;58932.97;5093951;28;20206;-74
2022/06/19 07:00:01;;;;;;;5.47;4.03;;;;;;;-141.29;100.00;58932.97;5093712;28;20203;-75
2022/06/19 07:02:30;;;;;;;3.57;2.97;;;;;;;-141.29;100.00;58932.97;5093396;28;20200;-74
2022/06/19 07:04:57;;;;;;;3.20;2.90;;;;;;;-141.29;100.00;58932.97;5093246;28;20219;-74
2022/06/19 07:07:25;;;;;;;4.53;3.70;;;;;;;-141.29;100.00;58932.97;5092837;28;20692;-75
2022/06/19 07:09:53;;;;;;;3.90;3.50;;;;;;;-141.29;100.00;58932.97;5091423;28;20280;-74
2022/06/19 07:12:20;;;;;;;9.00;4.00;;;;;;;-141.29;100.00;58932.97;5091301;28;20246;-73
2022/06/19 07:14:47;;;;;;;5.33;3.27;;;;;;;-141.29;100.00;58932.97;5091072;28;20211;-74
2022/06/19 07:17:14;;;;;;;6.80;3.47;;;;;;;-141.29;100.00;58932.97;5091178;28;20207;-75
2022/06/19 07:19:42;;;;;;;3.83;3.10;;;;;;;-141.29;100.00;58932.97;5091005;28;20580;-73
2022/06/19 07:22:12;;;;;;;4.60;3.17;;;;;;;-141.29;100.00;58932.97;5090787;28;20206;-75
2022/06/19 07:24:40;;;;;;;5.57;2.90;;;;;;;-141.29;100.00;58932.97;5091277;28;20283;-75
2022/06/19 07:27:07;;;;;;;7.33;2.50;;;;;;;-141.29;100.00;58932.97;5090980;28;20196;-74
2022/06/19 07:29:34;;;;;;;4.67;2.83;;;;;;;-141.29;100.00;58932.97;5090945;28;20192;-75
2022/06/19 07:32:01;;;;;;;10.33;2.87;;;;;;;-141.29;100.00;58932.97;5089728;28;20610;-75
2022/06/19 07:34:28;;;;;;;3.73;2.40;;;;;;;-141.29;100.00;58932.97;5090624;28;20210;-74
2022/06/19 07:36:55;;;;;;;5.23;2.83;;;;;;;-141.29;100.00;58932.97;5090527;28;20200;-74
2022/06/19 07:39:23;;;;;;;9.13;2.93;;;;;;;-141.29;100.00;58932.97;5091055;28;20238;-73
2022/06/19 07:41:51;;;;;;;3.23;2.10;;;;;;;-141.29;100.00;58932.97;5094168;28;20214;-73
2022/06/19 07:44:19;;;;;;;3.47;2.70;;;;;;;-141.29;100.00;58932.97;5094326;28;20207;-74
2022/06/19 07:52:12;;;;;;;5.87;1.70;;;;;;;-141.29;100.00;58932.97;5094174;28;20235;-74
2022/06/19 07:54:39;;;;;;;4.47;1.90;;;;;;;-141.29;100.00;58932.97;5096354;28;20204;-72
2022/06/19 07:57:07;;;;;;;2.40;1.60;;;;;;;-141.29;100.00;58932.97;5098469;28;20204;-73
2022/06/19 07:59:35;;;;;;;5.13;2.30;;;;;;;-141.29;100.00;58932.97;5094081;28;20663;-75
2022/06/19 08:02:02;;;;;;;5.97;2.03;;;;;;;-141.29;100.00;58932.97;5094056;28;20606;-74
2022/06/19 08:04:29;;;;;;;7.20;2.03;;;;;;;-141.29;100.00;58932.97;5094252;28;20204;-74
2022/06/19 08:06:56;;;;;;;3.67;2.13;;;;;;;-141.29;100.00;58932.97;5093984;28;20683;-75
2022/06/19 08:09:23;;;;;;;2.20;2.00;;;;;;;-141.29;100.00;58932.97;5093995;28;20196;-72
2022/06/19 08:11:50;;;;;;;2.87;2.00;;;;;;;-141.29;100.00;58932.97;5093470;28;20641;-74
2022/06/19 08:14:19;;;;;;;5.23;1.87;;;;;;;-141.29;100.00;58932.97;5093473;28;20199;-73
2022/06/19 08:16:46;;;;;;;3.37;3.07;;;;;;;-141.29;100.00;58932.97;5094094;28;20204;-74
2022/06/19 08:19:13;;;;;;;5.37;1.87;;;;;;;-141.29;100.00;58932.97;5093641;28;20200;-73
2022/06/19 08:21:40;;;;;;;5.30;2.70;;;;;;;-141.29;100.00;58932.97;5093893;28;20207;-73
2022/06/19 08:24:08;;;;;;;6.90;4.13;;;;;;;-141.29;100.00;58932.97;5093723;28;20280;-74
2022/06/19 08:26:36;;;;;;;4.17;2.97;;;;;;;-141.29;100.00;58932.97;5093634;28;20198;-77
2022/06/19 08:29:03;;;;;;;5.10;2.07;;;;;;;-141.29;100.00;58932.97;5093464;28;20200;-74
2022/06/19 08:31:33;;;;;;;3.23;2.93;;;;;;;-141.29;100.00;58932.97;5092093;28;20285;-75
2022/06/19 08:34:00;;;;;;;5.77;2.53;;;;;;;-141.29;100.00;58932.97;5080136;28;20613;-73
2022/06/19 08:36:28;;;;;;;2.73;1.83;;;;;;;-141.29;100.00;58932.97;5093478;28;20203;-74
2022/06/19 08:38:58;;;;;;;3.40;2.63;;;;;;;-141.29;100.00;58932.97;5093011;28;20605;-74
2022/06/19 08:41:48;;;;;;;4.70;2.87;;;;;;;-141.29;100.00;58932.97;5093296;28;20212;-73
2022/06/19 08:44:45;;;;;;;1.73;1.53;;;;;;;-141.29;100.00;58932.97;5081376;28;20211;-74
2022/06/19 08:47:42;;;;;;;4.50;2.20;;;;;;;-141.29;100.00;58932.97;5091697;28;20738;-75
2022/06/19 08:50:21;;;;;;;2.60;1.60;;;;;;;-141.29;100.00;58932.97;5093211;28;20277;-73
2022/06/19 08:53:01;;;;;;;2.40;1.70;;;;;;;-141.29;100.00;58932.97;5093226;28;20230;-74
2022/06/19 08:55:40;;;;;;;3.53;1.57;;;;;;;-141.29;100.00;58932.97;5093439;28;20206;-73
2022/06/19 08:58:17;;;;;;;2.03;1.60;;;;;;;-141.29;100.00;58932.97;5093012;28;20199;-75
2022/06/19 09:00:52;;;;;;;4.30;1.90;;;;;;;-141.29;100.00;58932.97;5093056;28;20557;-74
2022/06/19 09:03:29;;;;;;;1.87;1.70;;;;;;;-141.29;100.00;58932.97;5093119;28;20195;-74
2022/06/19 09:06:02;;;;;;;1.60;1.50;;;;;;;-141.29;100.00;58932.97;5092832;28;20199;-73
2022/06/19 09:09:06;;;;;;;2.57;1.77;;;;;;;-141.29;100.00;58932.97;5092802;28;20208;-75
2022/06/19 09:11:47;;;;;;;2.37;1.60;;;;;;;-141.29;100.00;58932.97;5062819;28;20715;-74
2022/06/19 09:14:34;;;;;;;5.40;1.70;;;;;;;-141.29;100.00;58932.97;5092572;28;20204;-74
2022/06/19 09:17:09;;;;;;;2.00;1.80;;;;;;;-141.29;100.00;58932.97;5092560;28;20257;-75
2022/06/19 09:19:53;;;;;;;1.70;1.53;;;;;;;-141.29;100.00;58932.97;5092655;28;20274;-76
2022/06/19 09:23:02;;;;;;;3.90;1.83;;;;;;;-141.29;100.00;58932.97;5092417;28;20220;-73
2022/06/19 09:25:44;;;;;;;3.53;1.67;;;;;;;-141.29;100.00;58932.97;5092520;28;20199;-75
2022/06/19 09:28:16;;;;;;;3.23;1.60;;;;;;;-141.29;100.00;58932.97;5092503;28;20737;-73
2022/06/19 09:30:49;;;;;;;5.00;1.63;;;;;;;-141.29;100.00;58932.97;5091336;28;20281;-73
2022/06/19 09:33:21;;;;;;;2.90;2.17;;;;;;;-141.29;100.00;58932.97;5092378;28;20234;-74
2022/06/19 09:35:57;;;;;;;2.30;1.47;;;;;;;-141.29;100.00;58932.97;5092558;28;20203;-73
2022/06/19 09:38:30;;;;;;;4.43;1.70;;;;;;;-141.29;100.00;58932.97;5092466;28;20211;-74
2022/06/19 09:41:03;;;;;;;2.87;1.53;;;;;;;-141.29;100.00;58932.97;5091958;28;20203;-74
2022/06/19 09:43:35;;;;;;;2.33;1.60;;;;;;;-141.29;100.00;58932.97;5092314;28;20192;-74
2022/06/19 09:46:06;;;;;;;4.30;1.53;;;;;;;-141.29;100.00;58932.97;5092076;28;20200;-74
2022/06/19 09:48:42;;;;;;;3.80;1.43;;;;;;;-141.29;100.00;58932.97;5092337;28;20215;-74
2022/06/19 09:51:15;;;;;;;3.87;1.30;;;;;;;-141.29;100.00;58932.97;5091620;28;20210;-74
2022/06/19 09:53:50;;;;;;;3.87;1.50;;;;;;;-141.29;100.00;58932.97;5092116;28;20211;-74
2022/06/19 09:56:32;;;;;;;4.10;1.53;;;;;;;-141.29;100.00;58932.97;5091934;28;20203;-73
2022/06/19 09:59:05;;;;;;;4.30;1.60;;;;;;;-141.29;100.00;58932.97;5092298;28;20629;-75
2022/06/19 10:01:32;;;;;;;1.70;1.33;;;;;;;-141.29;100.00;58932.97;5100313;28;20219;-74
2022/06/19 10:04:02;;;;;;;1.10;1.10;;;;;;;-141.29;100.00;58932.97;5091275;28;20208;-75
2022/06/19 10:06:38;;;;;;;2.20;1.50;;;;;;;-141.29;100.00;58932.97;5091701;28;20204;-74
2022/06/19 10:09:15;;;;;;;2.53;1.30;;;;;;;-141.29;100.00;58932.97;5091807;28;20662;-75
2022/06/19 10:11:43;;;;;;;1.73;1.63;;;;;;;-141.29;100.00;58932.97;5091592;28;20241;-74
2022/06/19 10:14:16;;;;;;;4.27;1.60;;;;;;;-141.29;100.00;58932.97;5091900;28;20195;-74
2022/06/19 10:16:47;;;;;;;1.83;1.20;;;;;;;-141.29;100.00;58932.97;5091720;28;20204;-74
2022/06/19 10:19:20;;;;;;;2.70;1.40;;;;;;;-141.29;100.00;58932.97;5091746;28;20196;-76
2022/06/19 10:24:50;;;;;;;3.53;1.40;;;;;;;-141.29;100.00;58932.97;5091904;28;20329;-75
2022/06/19 10:27:28;;;;;;;2.53;1.30;;;;;;;-141.29;100.00;58932.97;5091298;28;20196;-76
2022/06/19 10:30:04;;;;;;;2.27;1.40;;;;;;;-141.29;100.00;58932.97;5091563;28;20196;-75
2022/06/19 10:32:43;;;;;;;1.67;1.50;;;;;;;-141.29;100.00;58932.97;5082017;28;20243;-74
2022/06/19 10:35:19;;;;;;;2.40;1.70;;;;;;;-141.29;100.00;58932.97;5087838;28;20199;-75
2022/06/19 10:38:04;;;;;;;3.83;1.50;;;;;;;-141.29;100.00;58932.97;5091912;28;20199;-75
2022/06/19 10:40:41;;;;;;;2.63;1.50;;;;;;;-141.29;100.00;58932.97;5091998;28;20219;-74
2022/06/19 10:43:22;;;;;;;5.80;1.60;;;;;;;-141.29;100.00;58932.97;5091978;28;20207;-75
2022/06/19 10:45:52;;;;;;;2.17;1.50;;;;;;;-141.29;100.00;58932.97;5091242;28;20210;-74
2022/06/19 10:48:33;;;;;;;1.30;1.20;;;;;;;-141.29;100.00;58932.97;5091144;28;20227;-76
2022/06/19 10:51:09;;;;;;;4.93;1.70;;;;;;;-141.29;100.00;58932.97;5091578;28;20222;-74
2022/06/19 10:54:06;;;;;;;4.17;2.00;;;;;;;-141.29;100.00;58932.97;5091284;28;20227;-75
2022/06/19 10:56:42;;;;;;;1.50;1.40;;;;;;;-141.29;100.00;58932.97;5091427;28;20201;-75
2022/06/19 10:59:09;;;;;;;1.50;1.40;;;;;;;-141.29;100.00;58932.97;5073452;28;20234;-76
2022/06/19 11:04:34;;;;;;;5.13;1.60;;;;;;;-141.29;100.00;58932.97;5091309;28;20210;-75
2022/06/19 11:07:06;;;;;;;1.50;1.40;;;;;;;-141.29;100.00;58932.97;5090813;28;20210;-74
2022/06/19 11:09:40;;;;;;;2.43;1.30;;;;;;;-141.29;100.00;58932.97;5091239;28;20731;-73
2022/06/19 11:12:18;;;;;;;2.13;1.50;;;;;;;-141.29;100.00;58932.97;5090904;28;20238;-75
2022/06/19 11:14:49;;;;;;;4.40;1.67;;;;;;;-141.29;100.00;58932.97;5092064;28;20218;-74
2022/06/19 11:17:28;;;;;;;2.10;1.40;;;;;;;-141.29;100.00;58932.97;5095062;28;20202;-75
2022/06/19 11:19:55;;;;;;;1.43;1.20;;;;;;;-141.29;100.00;58932.97;5094834;28;20215;-75
2022/06/19 11:22:36;;;;;;;4.97;1.80;;;;;;;-141.29;100.00;58932.97;5094668;28;20200;-74
2022/06/19 11:25:33;;;;;;;3.20;1.43;;;;;;;-141.29;100.00;58932.97;5094641;28;20239;-75
2022/06/19 11:28:06;;;;;;;2.93;1.40;;;;;;;-141.29;100.00;58932.97;5082247;28;20200;-78
2022/06/19 11:30:36;;;;;;;1.40;1.30;;;;;;;-141.29;100.00;58932.97;5094238;28;20577;-73
2022/06/19 11:33:06;;;;;;;3.33;1.47;;;;;;;-141.29;100.00;58932.97;5081655;28;20231;-74
2022/06/19 11:35:43;;;;;;;2.37;1.63;;;;;;;-141.29;100.00;58932.97;5094540;28;20196;-76